CYYH

Details ICAO CYYH (YYH)
Name TALOYOAK
Region Canada
Timezone America/Cambridge_Bay (UTC-6.0)
Plans Departing 11
Arriving 12
Stats Elevation 92 ft / 28 m (AMSL)
Location 69.546111° -93.576113°
Runways 1
Magnetic Variation 12.418° W
Sunrise Unknown / Unknown
Sunset Unknown / Unknown
Advertisement - Login to hide

Runways

ID Width Length Bearing (true) Bearing (mag) Surface Threshold Offset Overrun Length
15T 100 ft / 30 m 4,008 ft / 1,222 m 151.85° 164.27° Gravel 0 ft / 0 m 0 ft / 0 m
33T 100 ft / 30 m 4,008 ft / 1,222 m 331.87° 344.29° Gravel 0 ft / 0 m 0 ft / 0 m

Map

Weather


0- 5 10 15 20 25 30 35+ Temperature / ° C

Clouds and Precipitation
Forecast for 2018-05-25 06:00 UTC. Updated 2 hours ago

Ground ~20,000 ft ~40,000 ft Winds

METAR

CYYH 250700Z 01007KT 15SM FEW050 FEW110 M13/M15 A3015 RMK SC1AC1 SC TR AC TR SLP216

TAF

TAF CYYH 250538Z 2506/2518 34008KT P6SM SCT100 RMK NXT FCST BY 251200Z

Frequencies

Unicom 122.10 MHz MANDATORY FREQ
Warning: Do not use this data for real-world aviation or navigation. No guarantee of current accuracy is given.